sensor_id;sensor_type;location;lat;lon;timestamp;temperature;humidity
32753;DHT22;19121;52.428;10.816;2024-01-30T00:01:43;18.80;39.80
32753;DHT22;19121;52.428;10.816;2024-01-30T00:04:08;18.80;39.80
32753;DHT22;19121;52.428;10.816;2024-01-30T00:06:34;18.80;39.80
32753;DHT22;19121;52.428;10.816;2024-01-30T00:08:59;18.80;39.80
32753;DHT22;19121;52.428;10.816;2024-01-30T00:11:25;18.80;39.80
32753;DHT22;19121;52.428;10.816;2024-01-30T00:13:54;18.70;39.70
32753;DHT22;19121;52.428;10.816;2024-01-30T00:16:22;18.70;39.70
32753;DHT22;19121;52.428;10.816;2024-01-30T00:18:47;18.80;39.70
32753;DHT22;19121;52.428;10.816;2024-01-30T00:21:13;18.70;39.70
32753;DHT22;19121;52.428;10.816;2024-01-30T00:23:38;18.70;39.80
32753;DHT22;19121;52.428;10.816;2024-01-30T00:26:04;18.80;39.80
32753;DHT22;19121;52.428;10.816;2024-01-30T00:28:30;18.70;39.70
32753;DHT22;19121;52.428;10.816;2024-01-30T00:30:56;18.70;39.70
32753;DHT22;19121;52.428;10.816;2024-01-30T00:33:21;18.70;39.70
32753;DHT22;19121;52.428;10.816;2024-01-30T00:35:47;18.70;39.70
32753;DHT22;19121;52.428;10.816;2024-01-30T00:38:12;18.70;39.80
32753;DHT22;19121;52.428;10.816;2024-01-30T00:40:38;18.70;39.80
32753;DHT22;19121;52.428;10.816;2024-01-30T00:43:03;18.70;39.80
32753;DHT22;19121;52.428;10.816;2024-01-30T00:45:29;18.70;39.80
32753;DHT22;19121;52.428;10.816;2024-01-30T00:47:54;18.70;39.70
32753;DHT22;19121;52.428;10.816;2024-01-30T00:50:20;18.70;39.80
32753;DHT22;19121;52.428;10.816;2024-01-30T00:52:45;18.70;39.70
32753;DHT22;19121;52.428;10.816;2024-01-30T00:55:11;18.70;39.80
32753;DHT22;19121;52.428;10.816;2024-01-30T00:57:36;18.70;39.80
32753;DHT22;19121;52.428;10.816;2024-01-30T01:00:02;18.70;39.70
32753;DHT22;19121;52.428;10.816;2024-01-30T01:02:28;18.70;39.70
32753;DHT22;19121;52.428;10.816;2024-01-30T01:04:53;18.70;39.70
32753;DHT22;19121;52.428;10.816;2024-01-30T01:07:19;18.70;39.70
32753;DHT22;19121;52.428;10.816;2024-01-30T01:09:44;18.70;39.70
32753;DHT22;19121;52.428;10.816;2024-01-30T01:12:10;18.70;39.70
32753;DHT22;19121;52.428;10.816;2024-01-30T01:14:35;18.70;39.80
32753;DHT22;19121;52.428;10.816;2024-01-30T01:17:01;18.70;39.70
32753;DHT22;19121;52.428;10.816;2024-01-30T01:19:27;18.70;39.70
32753;DHT22;19121;52.428;10.816;2024-01-30T01:21:52;18.70;39.70
32753;DHT22;19121;52.428;10.816;2024-01-30T01:24:18;18.70;39.70
32753;DHT22;19121;52.428;10.816;2024-01-30T01:26:44;18.70;39.80
32753;DHT22;19121;52.428;10.816;2024-01-30T01:29:09;18.70;39.80
32753;DHT22;19121;52.428;10.816;2024-01-30T01:31:37;18.70;39.70
32753;DHT22;19121;52.428;10.816;2024-01-30T01:34:09;18.70;40.30
32753;DHT22;19121;52.428;10.816;2024-01-30T01:36:35;18.70;39.70
32753;DHT22;19121;52.428;10.816;2024-01-30T01:39:00;18.70;39.70
32753;DHT22;19121;52.428;10.816;2024-01-30T01:41:29;18.70;39.70
32753;DHT22;19121;52.428;10.816;2024-01-30T01:43:54;18.70;39.70
32753;DHT22;19121;52.428;10.816;2024-01-30T01:46:20;18.60;39.70
32753;DHT22;19121;52.428;10.816;2024-01-30T01:48:45;18.60;39.70
32753;DHT22;19121;52.428;10.816;2024-01-30T01:51:12;18.60;39.70
32753;DHT22;19121;52.428;10.816;2024-01-30T01:53:38;18.60;39.70
32753;DHT22;19121;52.428;10.816;2024-01-30T01:56:03;18.60;39.70
32753;DHT22;19121;52.428;10.816;2024-01-30T01:58:30;18.60;39.70
32753;DHT22;19121;52.428;10.816;2024-01-30T02:00:56;18.60;39.70
32753;DHT22;19121;52.428;10.816;2024-01-30T02:03:21;18.60;39.70
32753;DHT22;19121;52.428;10.816;2024-01-30T02:05:47;18.60;39.70
32753;DHT22;19121;52.428;10.816;2024-01-30T02:08:13;18.60;39.60
32753;DHT22;19121;52.428;10.816;2024-01-30T02:10:38;18.60;39.70
32753;DHT22;19121;52.428;10.816;2024-01-30T02:13:04;18.60;39.70
32753;DHT22;19121;52.428;10.816;2024-01-30T02:15:30;18.60;39.70
32753;DHT22;19121;52.428;10.816;2024-01-30T02:17:55;18.60;39.70
32753;DHT22;19121;52.428;10.816;2024-01-30T02:20:21;18.60;39.70
32753;DHT22;19121;52.428;10.816;2024-01-30T02:22:47;18.60;39.60
32753;DHT22;19121;52.428;10.816;2024-01-30T02:25:13;18.60;39.60
32753;DHT22;19121;52.428;10.816;2024-01-30T02:27:39;18.60;39.60
32753;DHT22;19121;52.428;10.816;2024-01-30T02:30:04;18.60;39.60
32753;DHT22;19121;52.428;10.816;2024-01-30T02:32:30;18.60;39.70
32753;DHT22;19121;52.428;10.816;2024-01-30T02:34:55;18.60;39.70
32753;DHT22;19121;52.428;10.816;2024-01-30T02:37:21;18.60;39.60
32753;DHT22;19121;52.428;10.816;2024-01-30T02:39:46;18.60;39.70
32753;DHT22;19121;52.428;10.816;2024-01-30T02:42:12;18.60;39.70
32753;DHT22;19121;52.428;10.816;2024-01-30T02:44:37;18.60;39.60
32753;DHT22;19121;52.428;10.816;2024-01-30T02:47:03;18.60;39.60
32753;DHT22;19121;52.428;10.816;2024-01-30T02:49:28;18.60;39.70
32753;DHT22;19121;52.428;10.816;2024-01-30T02:51:54;18.50;39.60
32753;DHT22;19121;52.428;10.816;2024-01-30T02:54:20;18.60;39.70
32753;DHT22;19121;52.428;10.816;2024-01-30T02:56:45;18.60;39.70
32753;DHT22;19121;52.428;10.816;2024-01-30T02:59:11;18.50;39.60
32753;DHT22;19121;52.428;10.816;2024-01-30T03:01:45;18.60;39.70
32753;DHT22;19121;52.428;10.816;2024-01-30T03:04:11;18.60;39.70
32753;DHT22;19121;52.428;10.816;2024-01-30T03:06:37;18.60;39.60
32753;DHT22;19121;52.428;10.816;2024-01-30T03:09:02;18.60;39.60
32753;DHT22;19121;52.428;10.816;2024-01-30T03:11:28;18.60;39.60
32753;DHT22;19121;52.428;10.816;2024-01-30T03:13:54;18.60;39.60
32753;DHT22;19121;52.428;10.816;2024-01-30T03:16:19;18.60;39.60
32753;DHT22;19121;52.428;10.816;2024-01-30T03:18:45;18.60;39.60
32753;DHT22;19121;52.428;10.816;2024-01-30T03:21:10;18.60;39.50
32753;DHT22;19121;52.428;10.816;2024-01-30T03:23:36;18.60;39.50
32753;DHT22;19121;52.428;10.816;2024-01-30T03:26:01;18.60;39.50
32753;DHT22;19121;52.428;10.816;2024-01-30T03:28:27;18.70;39.50
32753;DHT22;19121;52.428;10.816;2024-01-30T03:30:52;18.70;39.50
32753;DHT22;19121;52.428;10.816;2024-01-30T03:33:18;18.70;39.40
32753;DHT22;19121;52.428;10.816;2024-01-30T03:35:43;18.70;39.40
32753;DHT22;19121;52.428;10.816;2024-01-30T03:38:09;18.70;39.30
32753;DHT22;19121;52.428;10.816;2024-01-30T03:40:34;18.70;39.30
32753;DHT22;19121;52.428;10.816;2024-01-30T03:42:59;18.70;39.20
32753;DHT22;19121;52.428;10.816;2024-01-30T03:45:25;18.70;39.30
32753;DHT22;19121;52.428;10.816;2024-01-30T03:47:50;18.80;39.30
32753;DHT22;19121;52.428;10.816;2024-01-30T03:50:16;18.80;39.30
32753;DHT22;19121;52.428;10.816;2024-01-30T03:52:41;18.80;39.20
32753;DHT22;19121;52.428;10.816;2024-01-30T03:55:07;18.80;39.30
32753;DHT22;19121;52.428;10.816;2024-01-30T03:57:32;18.80;39.20
32753;DHT22;19121;52.428;10.816;2024-01-30T03:59:58;18.80;39.30
32753;DHT22;19121;52.428;10.816;2024-01-30T04:02:23;18.80;39.20
32753;DHT22;19121;52.428;10.816;2024-01-30T04:04:50;18.80;39.20
32753;DHT22;19121;52.428;10.816;2024-01-30T04:07:15;18.80;39.20
32753;DHT22;19121;52.428;10.816;2024-01-30T04:09:41;18.80;39.20
32753;DHT22;19121;52.428;10.816;2024-01-30T04:12:06;18.80;39.20
32753;DHT22;19121;52.428;10.816;2024-01-30T04:14:32;18.80;39.20
32753;DHT22;19121;52.428;10.816;2024-01-30T04:16:57;18.80;39.10
32753;DHT22;19121;52.428;10.816;2024-01-30T04:19:23;18.80;39.20
32753;DHT22;19121;52.428;10.816;2024-01-30T04:21:48;18.80;39.20
32753;DHT22;19121;52.428;10.816;2024-01-30T04:24:13;18.80;39.20
32753;DHT22;19121;52.428;10.816;2024-01-30T04:26:39;18.80;39.20
32753;DHT22;19121;52.428;10.816;2024-01-30T04:29:04;18.80;39.10
32753;DHT22;19121;52.428;10.816;2024-01-30T04:31:30;18.80;39.20
32753;DHT22;19121;52.428;10.816;2024-01-30T04:33:55;18.80;39.20
32753;DHT22;19121;52.428;10.816;2024-01-30T04:36:21;18.80;39.20
32753;DHT22;19121;52.428;10.816;2024-01-30T04:38:46;18.80;39.20
32753;DHT22;19121;52.428;10.816;2024-01-30T04:41:12;18.80;39.20
32753;DHT22;19121;52.428;10.816;2024-01-30T04:43:37;18.80;39.20
32753;DHT22;19121;52.428;10.816;2024-01-30T04:46:03;18.80;39.10
32753;DHT22;19121;52.428;10.816;2024-01-30T04:48:29;18.80;39.10
32753;DHT22;19121;52.428;10.816;2024-01-30T04:50:55;18.80;39.10
32753;DHT22;19121;52.428;10.816;2024-01-30T04:53:21;18.80;39.10
32753;DHT22;19121;52.428;10.816;2024-01-30T04:55:46;18.80;39.10
32753;DHT22;19121;52.428;10.816;2024-01-30T04:58:12;18.80;39.70
32753;DHT22;19121;52.428;10.816;2024-01-30T05:00:37;18.80;39.10
32753;DHT22;19121;52.428;10.816;2024-01-30T05:03:03;18.80;39.10
32753;DHT22;19121;52.428;10.816;2024-01-30T05:05:28;18.80;39.10
32753;DHT22;19121;52.428;10.816;2024-01-30T05:07:54;18.80;39.10
32753;DHT22;19121;52.428;10.816;2024-01-30T05:10:20;18.80;39.10
32753;DHT22;19121;52.428;10.816;2024-01-30T05:12:45;18.80;39.10
32753;DHT22;19121;52.428;10.816;2024-01-30T05:15:10;18.80;39.10
32753;DHT22;19121;52.428;10.816;2024-01-30T05:17:36;18.80;39.10
32753;DHT22;19121;52.428;10.816;2024-01-30T05:20:01;18.80;39.10
32753;DHT22;19121;52.428;10.816;2024-01-30T05:22:27;18.80;39.10
32753;DHT22;19121;52.428;10.816;2024-01-30T05:24:53;18.90;39.10
32753;DHT22;19121;52.428;10.816;2024-01-30T05:27:18;18.80;39.10
32753;DHT22;19121;52.428;10.816;2024-01-30T05:29:44;18.80;39.00
32753;DHT22;19121;52.428;10.816;2024-01-30T05:32:09;18.80;39.00
32753;DHT22;19121;52.428;10.816;2024-01-30T05:34:35;18.80;39.00
32753;DHT22;19121;52.428;10.816;2024-01-30T05:37:01;18.80;39.00
32753;DHT22;19121;52.428;10.816;2024-01-30T05:39:26;18.80;39.00
32753;DHT22;19121;52.428;10.816;2024-01-30T05:41:52;18.80;39.00
32753;DHT22;19121;52.428;10.816;2024-01-30T05:44:17;18.80;39.60
32753;DHT22;19121;52.428;10.816;2024-01-30T05:46:43;18.90;39.10
32753;DHT22;19121;52.428;10.816;2024-01-30T05:49:08;18.80;39.00
32753;DHT22;19121;52.428;10.816;2024-01-30T05:51:34;18.80;39.00
32753;DHT22;19121;52.428;10.816;2024-01-30T05:53:59;18.80;39.00
32753;DHT22;19121;52.428;10.816;2024-01-30T05:56:25;18.80;39.00
32753;DHT22;19121;52.428;10.816;2024-01-30T05:58:50;18.80;39.00
32753;DHT22;19121;52.428;10.816;2024-01-30T06:01:16;18.80;39.00
32753;DHT22;19121;52.428;10.816;2024-01-30T06:03:41;18.80;39.00
32753;DHT22;19121;52.428;10.816;2024-01-30T06:06:08;18.80;38.90
32753;DHT22;19121;52.428;10.816;2024-01-30T06:08:34;18.90;39.10
32753;DHT22;19121;52.428;10.816;2024-01-30T06:10:59;18.80;39.00
32753;DHT22;19121;52.428;10.816;2024-01-30T06:13:25;18.80;38.90
32753;DHT22;19121;52.428;10.816;2024-01-30T06:15:51;18.80;38.90
32753;DHT22;19121;52.428;10.816;2024-01-30T06:18:16;18.80;38.90
32753;DHT22;19121;52.428;10.816;2024-01-30T06:20:42;18.90;39.00
32753;DHT22;19121;52.428;10.816;2024-01-30T06:23:07;18.90;38.90
32753;DHT22;19121;52.428;10.816;2024-01-30T06:25:33;18.80;38.90
32753;DHT22;19121;52.428;10.816;2024-01-30T06:27:58;18.90;39.00
32753;DHT22;19121;52.428;10.816;2024-01-30T06:30:24;18.90;39.00
32753;DHT22;19121;52.428;10.816;2024-01-30T06:32:49;18.80;38.90
32753;DHT22;19121;52.428;10.816;2024-01-30T06:35:15;18.80;38.90
32753;DHT22;19121;52.428;10.816;2024-01-30T06:37:40;18.80;38.80
32753;DHT22;19121;52.428;10.816;2024-01-30T06:40:06;18.80;38.90
32753;DHT22;19121;52.428;10.816;2024-01-30T06:42:32;18.90;38.90
32753;DHT22;19121;52.428;10.816;2024-01-30T06:44:57;18.80;38.80
32753;DHT22;19121;52.428;10.816;2024-01-30T06:47:22;18.90;38.90
32753;DHT22;19121;52.428;10.816;2024-01-30T06:49:48;18.90;39.00
32753;DHT22;19121;52.428;10.816;2024-01-30T06:52:13;18.80;39.10
32753;DHT22;19121;52.428;10.816;2024-01-30T06:54:39;18.80;39.10
32753;DHT22;19121;52.428;10.816;2024-01-30T06:57:05;18.80;39.20
32753;DHT22;19121;52.428;10.816;2024-01-30T06:59:34;18.90;39.30
32753;DHT22;19121;52.428;10.816;2024-01-30T07:01:59;18.90;39.30
32753;DHT22;19121;52.428;10.816;2024-01-30T07:04:25;18.90;39.20
32753;DHT22;19121;52.428;10.816;2024-01-30T07:06:50;18.90;39.30
32753;DHT22;19121;52.428;10.816;2024-01-30T07:09:18;18.90;39.30
32753;DHT22;19121;52.428;10.816;2024-01-30T07:11:43;18.90;39.30
32753;DHT22;19121;52.428;10.816;2024-01-30T07:14:09;18.90;39.30
32753;DHT22;19121;52.428;10.816;2024-01-30T07:16:34;18.90;39.40
32753;DHT22;19121;52.428;10.816;2024-01-30T07:19:00;18.90;39.40
32753;DHT22;19121;52.428;10.816;2024-01-30T07:21:25;18.90;39.40
32753;DHT22;19121;52.428;10.816;2024-01-30T07:23:56;19.00;39.40
32753;DHT22;19121;52.428;10.816;2024-01-30T07:26:22;19.00;39.50
32753;DHT22;19121;52.428;10.816;2024-01-30T07:28:48;19.00;39.50
32753;DHT22;19121;52.428;10.816;2024-01-30T07:31:13;19.00;39.50
32753;DHT22;19121;52.428;10.816;2024-01-30T07:33:39;19.00;40.10
32753;DHT22;19121;52.428;10.816;2024-01-30T07:36:04;19.00;39.50
32753;DHT22;19121;52.428;10.816;2024-01-30T07:38:33;19.00;39.50
32753;DHT22;19121;52.428;10.816;2024-01-30T07:40:59;19.00;39.60
32753;DHT22;19121;52.428;10.816;2024-01-30T07:43:24;19.00;39.60
32753;DHT22;19121;52.428;10.816;2024-01-30T07:45:50;19.00;39.60
32753;DHT22;19121;52.428;10.816;2024-01-30T07:48:15;19.00;39.70
32753;DHT22;19121;52.428;10.816;2024-01-30T07:50:41;19.00;39.70
32753;DHT22;19121;52.428;10.816;2024-01-30T07:53:06;19.00;39.80
32753;DHT22;19121;52.428;10.816;2024-01-30T07:55:32;19.10;39.90
32753;DHT22;19121;52.428;10.816;2024-01-30T07:57:58;19.10;39.80
32753;DHT22;19121;52.428;10.816;2024-01-30T08:00:24;19.10;39.70
32753;DHT22;19121;52.428;10.816;2024-01-30T08:02:49;19.10;40.30
32753;DHT22;19121;52.428;10.816;2024-01-30T08:05:15;19.20;39.60
32753;DHT22;19121;52.428;10.816;2024-01-30T08:07:41;19.20;39.60
32753;DHT22;19121;52.428;10.816;2024-01-30T08:10:07;19.20;39.50
32753;DHT22;19121;52.428;10.816;2024-01-30T08:12:33;19.20;39.40
32753;DHT22;19121;52.428;10.816;2024-01-30T08:14:58;19.30;39.50
32753;DHT22;19121;52.428;10.816;2024-01-30T08:17:24;19.30;39.40
32753;DHT22;19121;52.428;10.816;2024-01-30T08:19:49;19.30;39.40
32753;DHT22;19121;52.428;10.816;2024-01-30T08:22:14;19.30;39.30
32753;DHT22;19121;52.428;10.816;2024-01-30T08:24:41;19.40;39.40
32753;DHT22;19121;52.428;10.816;2024-01-30T08:27:06;19.40;39.40
32753;DHT22;19121;52.428;10.816;2024-01-30T08:29:35;19.40;39.40
32753;DHT22;19121;52.428;10.816;2024-01-30T08:32:00;19.40;39.30
32753;DHT22;19121;52.428;10.816;2024-01-30T08:34:26;19.40;39.40
32753;DHT22;19121;52.428;10.816;2024-01-30T08:36:51;19.40;39.40
32753;DHT22;19121;52.428;10.816;2024-01-30T08:39:17;19.40;39.30
32753;DHT22;19121;52.428;10.816;2024-01-30T08:41:42;19.50;39.30
32753;DHT22;19121;52.428;10.816;2024-01-30T08:44:08;19.50;39.30
32753;DHT22;19121;52.428;10.816;2024-01-30T08:46:33;19.50;39.30
32753;DHT22;19121;52.428;10.816;2024-01-30T08:48:59;19.50;39.20
32753;DHT22;19121;52.428;10.816;2024-01-30T08:51:24;19.50;39.30
32753;DHT22;19121;52.428;10.816;2024-01-30T08:53:50;19.50;39.30
32753;DHT22;19121;52.428;10.816;2024-01-30T08:56:15;19.60;39.30
32753;DHT22;19121;52.428;10.816;2024-01-30T08:58:41;19.60;39.50
32753;DHT22;19121;52.428;10.816;2024-01-30T09:01:07;19.60;39.50
32753;DHT22;19121;52.428;10.816;2024-01-30T09:03:32;19.60;39.50
32753;DHT22;19121;52.428;10.816;2024-01-30T09:05:58;19.60;39.40
32753;DHT22;19121;52.428;10.816;2024-01-30T09:08:23;19.60;39.40
32753;DHT22;19121;52.428;10.816;2024-01-30T09:10:49;19.60;39.40
32753;DHT22;19121;52.428;10.816;2024-01-30T09:13:15;19.60;39.40
32753;DHT22;19121;52.428;10.816;2024-01-30T09:15:41;19.60;39.40
32753;DHT22;19121;52.428;10.816;2024-01-30T09:18:07;19.60;39.40
32753;DHT22;19121;52.428;10.816;2024-01-30T09:20:32;19.60;39.30
32753;DHT22;19121;52.428;10.816;2024-01-30T09:22:58;19.70;39.40
32753;DHT22;19121;52.428;10.816;2024-01-30T09:25:23;19.70;39.40
32753;DHT22;19121;52.428;10.816;2024-01-30T09:27:49;19.70;39.40
32753;DHT22;19121;52.428;10.816;2024-01-30T09:30:14;19.70;39.30
32753;DHT22;19121;52.428;10.816;2024-01-30T09:32:40;19.70;39.40
32753;DHT22;19121;52.428;10.816;2024-01-30T09:35:05;19.70;39.40
32753;DHT22;19121;52.428;10.816;2024-01-30T09:37:31;19.70;39.30
32753;DHT22;19121;52.428;10.816;2024-01-30T09:39:56;19.70;39.40
32753;DHT22;19121;52.428;10.816;2024-01-30T09:42:34;19.70;39.40
32753;DHT22;19121;52.428;10.816;2024-01-30T09:45:01;19.80;39.40
32753;DHT22;19121;52.428;10.816;2024-01-30T09:47:39;19.80;39.40
32753;DHT22;19121;52.428;10.816;2024-01-30T09:50:06;19.80;39.40
32753;DHT22;19121;52.428;10.816;2024-01-30T09:52:31;19.80;39.30
32753;DHT22;19121;52.428;10.816;2024-01-30T09:54:58;19.80;39.30
32753;DHT22;19121;52.428;10.816;2024-01-30T09:57:24;19.80;39.30
32753;DHT22;19121;52.428;10.816;2024-01-30T09:59:51;19.80;39.30
32753;DHT22;19121;52.428;10.816;2024-01-30T10:02:19;19.80;39.40
32753;DHT22;19121;52.428;10.816;2024-01-30T10:04:45;19.80;39.40
32753;DHT22;19121;52.428;10.816;2024-01-30T10:07:12;19.80;39.40
32753;DHT22;19121;52.428;10.816;2024-01-30T10:09:38;19.80;39.30
32753;DHT22;19121;52.428;10.816;2024-01-30T10:12:03;19.90;39.40
32753;DHT22;19121;52.428;10.816;2024-01-30T10:14:29;19.90;39.40
32753;DHT22;19121;52.428;10.816;2024-01-30T10:16:55;19.90;39.50
32753;DHT22;19121;52.428;10.816;2024-01-30T10:19:20;19.90;39.40
32753;DHT22;19121;52.428;10.816;2024-01-30T10:21:46;19.90;39.50
32753;DHT22;19121;52.428;10.816;2024-01-30T10:24:11;19.90;39.40
32753;DHT22;19121;52.428;10.816;2024-01-30T10:26:39;19.90;39.40
32753;DHT22;19121;52.428;10.816;2024-01-30T10:29:04;19.90;39.50
32753;DHT22;19121;52.428;10.816;2024-01-30T10:31:30;19.90;39.50
32753;DHT22;19121;52.428;10.816;2024-01-30T10:33:58;19.90;39.50
32753;DHT22;19121;52.428;10.816;2024-01-30T10:36:26;19.90;39.50
32753;DHT22;19121;52.428;10.816;2024-01-30T10:38:53;19.90;39.50
32753;DHT22;19121;52.428;10.816;2024-01-30T10:41:22;20.00;39.50
32753;DHT22;19121;52.428;10.816;2024-01-30T10:43:50;20.00;39.50
32753;DHT22;19121;52.428;10.816;2024-01-30T10:46:22;20.00;39.50
32753;DHT22;19121;52.428;10.816;2024-01-30T10:48:57;20.00;39.50
32753;DHT22;19121;52.428;10.816;2024-01-30T10:51:23;20.00;39.50
32753;DHT22;19121;52.428;10.816;2024-01-30T10:53:49;20.00;39.50
32753;DHT22;19121;52.428;10.816;2024-01-30T10:56:14;20.00;39.50
32753;DHT22;19121;52.428;10.816;2024-01-30T10:58:41;20.10;39.60
32753;DHT22;19121;52.428;10.816;2024-01-30T11:01:07;20.10;39.60
32753;DHT22;19121;52.428;10.816;2024-01-30T11:03:33;20.10;39.60
32753;DHT22;19121;52.428;10.816;2024-01-30T11:06:01;20.10;39.60
32753;DHT22;19121;52.428;10.816;2024-01-30T11:08:27;20.10;39.60
32753;DHT22;19121;52.428;10.816;2024-01-30T11:10:56;20.10;39.60
32753;DHT22;19121;52.428;10.816;2024-01-30T11:13:26;20.10;39.70
32753;DHT22;19121;52.428;10.816;2024-01-30T11:15:51;20.10;39.70
32753;DHT22;19121;52.428;10.816;2024-01-30T11:18:26;20.10;39.70
32753;DHT22;19121;52.428;10.816;2024-01-30T11:20:55;20.10;39.70
32753;DHT22;19121;52.428;10.816;2024-01-30T11:23:22;20.10;39.80
32753;DHT22;19121;52.428;10.816;2024-01-30T11:25:47;20.10;39.70
32753;DHT22;19121;52.428;10.816;2024-01-30T11:28:14;20.10;39.60
32753;DHT22;19121;52.428;10.816;2024-01-30T11:30:41;20.10;39.70
32753;DHT22;19121;52.428;10.816;2024-01-30T11:33:07;20.10;39.70
32753;DHT22;19121;52.428;10.816;2024-01-30T11:35:34;20.20;39.70
32753;DHT22;19121;52.428;10.816;2024-01-30T11:38:00;20.10;39.70
32753;DHT22;19121;52.428;10.816;2024-01-30T11:40:27;20.20;39.80
32753;DHT22;19121;52.428;10.816;2024-01-30T11:42:53;20.20;39.70
32753;DHT22;19121;52.428;10.816;2024-01-30T11:45:18;20.20;39.80
32753;DHT22;19121;52.428;10.816;2024-01-30T11:47:44;20.20;39.70
32753;DHT22;19121;52.428;10.816;2024-01-30T11:50:09;20.20;39.80
32753;DHT22;19121;52.428;10.816;2024-01-30T11:52:36;20.20;39.90
32753;DHT22;19121;52.428;10.816;2024-01-30T11:55:02;20.20;40.00
32753;DHT22;19121;52.428;10.816;2024-01-30T11:57:28;20.20;40.10
32753;DHT22;19121;52.428;10.816;2024-01-30T11:59:53;20.20;40.00
32753;DHT22;19121;52.428;10.816;2024-01-30T12:02:18;20.20;40.10
32753;DHT22;19121;52.428;10.816;2024-01-30T12:04:44;20.20;40.10
32753;DHT22;19121;52.428;10.816;2024-01-30T12:07:10;20.20;40.10
32753;DHT22;19121;52.428;10.816;2024-01-30T12:09:35;20.30;40.10
32753;DHT22;19121;52.428;10.816;2024-01-30T12:12:01;20.20;40.10
32753;DHT22;19121;52.428;10.816;2024-01-30T12:14:26;20.30;40.20
32753;DHT22;19121;52.428;10.816;2024-01-30T12:16:52;20.30;40.30
32753;DHT22;19121;52.428;10.816;2024-01-30T12:19:21;20.30;40.40
32753;DHT22;19121;52.428;10.816;2024-01-30T12:21:46;20.30;40.30
32753;DHT22;19121;52.428;10.816;2024-01-30T12:24:12;20.30;40.30
32753;DHT22;19121;52.428;10.816;2024-01-30T12:26:37;20.30;40.30
32753;DHT22;19121;52.428;10.816;2024-01-30T12:29:03;20.30;40.30
32753;DHT22;19121;52.428;10.816;2024-01-30T12:31:31;20.30;40.30
32753;DHT22;19121;52.428;10.816;2024-01-30T12:33:58;20.30;40.30
32753;DHT22;19121;52.428;10.816;2024-01-30T12:36:24;20.30;40.50
32753;DHT22;19121;52.428;10.816;2024-01-30T12:38:49;20.30;40.40
32753;DHT22;19121;52.428;10.816;2024-01-30T12:41:15;20.30;40.40
32753;DHT22;19121;52.428;10.816;2024-01-30T12:43:41;20.30;40.50
32753;DHT22;19121;52.428;10.816;2024-01-30T12:46:07;20.30;40.60
32753;DHT22;19121;52.428;10.816;2024-01-30T12:48:32;20.30;40.60
32753;DHT22;19121;52.428;10.816;2024-01-30T12:50:58;20.30;40.70
32753;DHT22;19121;52.428;10.816;2024-01-30T12:53:23;20.30;40.70
32753;DHT22;19121;52.428;10.816;2024-01-30T12:55:49;20.30;40.80
32753;DHT22;19121;52.428;10.816;2024-01-30T12:58:19;20.30;40.90
32753;DHT22;19121;52.428;10.816;2024-01-30T13:00:45;20.30;40.90
32753;DHT22;19121;52.428;10.816;2024-01-30T13:03:10;20.30;41.00
32753;DHT22;19121;52.428;10.816;2024-01-30T13:05:36;20.30;41.00
32753;DHT22;19121;52.428;10.816;2024-01-30T13:08:02;20.30;41.20
32753;DHT22;19121;52.428;10.816;2024-01-30T13:10:27;20.30;41.20
32753;DHT22;19121;52.428;10.816;2024-01-30T13:12:53;20.30;41.20
32753;DHT22;19121;52.428;10.816;2024-01-30T13:15:18;20.30;41.30
32753;DHT22;19121;52.428;10.816;2024-01-30T13:17:44;20.30;41.30
32753;DHT22;19121;52.428;10.816;2024-01-30T13:20:12;20.30;41.30
32753;DHT22;19121;52.428;10.816;2024-01-30T13:22:42;20.30;41.30
32753;DHT22;19121;52.428;10.816;2024-01-30T13:25:08;20.30;41.20
32753;DHT22;19121;52.428;10.816;2024-01-30T13:27:33;20.30;41.10
32753;DHT22;19121;52.428;10.816;2024-01-30T13:29:59;20.30;41.10
32753;DHT22;19121;52.428;10.816;2024-01-30T13:32:24;20.30;41.10
32753;DHT22;19121;52.428;10.816;2024-01-30T13:34:50;20.30;41.00
32753;DHT22;19121;52.428;10.816;2024-01-30T13:37:15;20.30;41.10
32753;DHT22;19121;52.428;10.816;2024-01-30T13:39:41;20.30;41.20
32753;DHT22;19121;52.428;10.816;2024-01-30T13:42:06;20.30;41.20
32753;DHT22;19121;52.428;10.816;2024-01-30T13:44:32;20.30;41.20
32753;DHT22;19121;52.428;10.816;2024-01-30T13:46:57;20.30;41.30
32753;DHT22;19121;52.428;10.816;2024-01-30T13:49:23;20.30;41.30
32753;DHT22;19121;52.428;10.816;2024-01-30T13:51:48;20.30;41.30
32753;DHT22;19121;52.428;10.816;2024-01-30T13:54:13;20.30;41.30
32753;DHT22;19121;52.428;10.816;2024-01-30T13:56:40;20.30;41.20
32753;DHT22;19121;52.428;10.816;2024-01-30T13:59:06;20.30;41.20
32753;DHT22;19121;52.428;10.816;2024-01-30T14:01:32;20.30;41.20
32753;DHT22;19121;52.428;10.816;2024-01-30T14:03:58;20.30;41.30
32753;DHT22;19121;52.428;10.816;2024-01-30T14:06:23;20.30;41.30
32753;DHT22;19121;52.428;10.816;2024-01-30T14:08:48;20.30;41.30
32753;DHT22;19121;52.428;10.816;2024-01-30T14:11:14;20.30;41.30
32753;DHT22;19121;52.428;10.816;2024-01-30T14:13:39;20.30;41.30
32753;DHT22;19121;52.428;10.816;2024-01-30T14:16:05;20.30;41.30
32753;DHT22;19121;52.428;10.816;2024-01-30T14:18:30;20.30;41.30
32753;DHT22;19121;52.428;10.816;2024-01-30T14:20:56;20.40;41.40
32753;DHT22;19121;52.428;10.816;2024-01-30T14:23:21;20.30;41.30
32753;DHT22;19121;52.428;10.816;2024-01-30T14:25:47;20.30;41.40
32753;DHT22;19121;52.428;10.816;2024-01-30T14:28:12;20.30;41.40
32753;DHT22;19121;52.428;10.816;2024-01-30T14:30:38;20.30;41.50
32753;DHT22;19121;52.428;10.816;2024-01-30T14:33:03;20.30;41.50
32753;DHT22;19121;52.428;10.816;2024-01-30T14:35:29;20.30;41.50
32753;DHT22;19121;52.428;10.816;2024-01-30T14:37:55;20.30;41.50
32753;DHT22;19121;52.428;10.816;2024-01-30T14:40:20;20.40;41.50
32753;DHT22;19121;52.428;10.816;2024-01-30T14:42:46;20.40;41.60
32753;DHT22;19121;52.428;10.816;2024-01-30T14:45:11;20.30;41.50
32753;DHT22;19121;52.428;10.816;2024-01-30T14:47:37;20.30;41.50
32753;DHT22;19121;52.428;10.816;2024-01-30T14:50:03;20.30;41.50
32753;DHT22;19121;52.428;10.816;2024-01-30T14:52:30;20.30;41.50
32753;DHT22;19121;52.428;10.816;2024-01-30T14:54:56;20.30;41.50
32753;DHT22;19121;52.428;10.816;2024-01-30T14:57:22;20.30;41.50
32753;DHT22;19121;52.428;10.816;2024-01-30T14:59:47;20.40;41.60
32753;DHT22;19121;52.428;10.816;2024-01-30T15:02:13;20.30;41.50
32753;DHT22;19121;52.428;10.816;2024-01-30T15:04:39;20.30;42.20
32753;DHT22;19121;52.428;10.816;2024-01-30T15:07:05;20.30;41.60